createdAt,value
2017-07-22T00:00:41.653Z,4.30
2017-07-22T00:03:09.133Z,4.60
2017-07-22T00:05:36.586Z,4.63
2017-07-22T00:08:04.621Z,3.30
2017-07-22T00:10:32.106Z,3.47
2017-07-22T00:12:59.602Z,2.50
2017-07-22T00:15:27.057Z,3.67
2017-07-22T00:17:54.507Z,4.37
2017-07-22T00:20:22.349Z,4.27
2017-07-22T00:22:49.800Z,2.90
2017-07-22T00:25:17.250Z,7.03
2017-07-22T00:27:44.709Z,3.13
2017-07-22T00:30:12.231Z,1.60
2017-07-22T00:32:40.036Z,3.20
2017-07-22T00:35:07.588Z,2.30
2017-07-22T00:37:35.050Z,2.07
2017-07-22T00:40:02.615Z,3.00
2017-07-22T00:42:30.079Z,9.73
2017-07-22T00:44:57.988Z,3.20
2017-07-22T00:47:25.427Z,3.00
2017-07-22T00:49:52.952Z,2.03
2017-07-22T00:52:20.377Z,2.30
2017-07-22T00:54:47.858Z,2.90
2017-07-22T00:57:15.639Z,2.30
2017-07-22T00:59:43.089Z,4.03
2017-07-22T01:02:10.547Z,1.70
2017-07-22T01:04:38.027Z,2.03
2017-07-22T01:07:05.471Z,2.27
2017-07-22T01:09:36.388Z,1.60
2017-07-22T01:12:03.964Z,2.70
2017-07-22T01:14:31.527Z,2.50
2017-07-22T01:16:59.175Z,2.43
2017-07-22T01:19:26.627Z,3.83
2017-07-22T01:21:55.261Z,4.03
2017-07-22T01:24:22.705Z,4.20
2017-07-22T01:26:50.218Z,6.10
2017-07-22T01:29:17.662Z,6.47
2017-07-22T01:31:45.149Z,9.40
2017-07-22T01:34:12.600Z,10.07
2017-07-22T01:36:40.083Z,15.70
2017-07-22T01:39:07.619Z,11.37
2017-07-22T01:41:35.117Z,14.60
2017-07-22T01:44:02.562Z,15.67
2017-07-22T01:46:30.093Z,16.50
2017-07-22T01:48:57.541Z,15.50
2017-07-22T01:51:24.998Z,22.93
2017-07-22T01:53:52.450Z,18.50
2017-07-22T01:56:19.895Z,17.73
2017-07-22T01:58:47.489Z,21.27
2017-07-22T02:01:15.029Z,21.53
2017-07-22T02:03:42.494Z,24.10
2017-07-22T02:06:10.039Z,19.47
2017-07-22T02:08:37.597Z,21.17
2017-07-22T02:11:05.047Z,22.03
2017-07-22T02:13:32.527Z,21.30
2017-07-22T02:15:59.986Z,20.77
2017-07-22T02:18:27.531Z,25.37
2017-07-22T02:20:55.073Z,25.23
2017-07-22T02:23:22.649Z,21.60
2017-07-22T02:25:50.092Z,23.10
2017-07-22T02:28:17.650Z,20.07
2017-07-22T02:30:45.096Z,19.33
2017-07-22T02:33:12.732Z,25.73
2017-07-22T02:35:40.306Z,20.03
2017-07-22T02:38:07.849Z,20.00
2017-07-22T02:40:35.289Z,19.77
2017-07-22T02:43:02.760Z,19.57
2017-07-22T02:45:30.249Z,18.83
2017-07-22T02:47:58.084Z,20.10
2017-07-22T02:50:25.549Z,20.70
2017-07-22T02:52:53.047Z,26.30
2017-07-22T02:55:20.554Z,16.30
2017-07-22T02:57:48.007Z,14.23
2017-07-22T03:00:15.474Z,10.80
2017-07-22T03:02:42.974Z,10.63
2017-07-22T03:05:10.422Z,9.17
2017-07-22T03:07:37.853Z,13.93
2017-07-22T03:10:05.327Z,9.63
2017-07-22T03:12:32.786Z,9.33
2017-07-22T03:15:00.367Z,9.30
2017-07-22T03:17:27.913Z,5.60
2017-07-22T03:19:55.362Z,5.67
2017-07-22T03:22:22.803Z,5.30
2017-07-22T03:24:50.263Z,3.70
2017-07-22T03:27:17.703Z,3.60
2017-07-22T03:29:45.167Z,7.00
2017-07-22T03:32:12.622Z,3.20
2017-07-22T03:34:40.083Z,4.77
2017-07-22T03:37:07.528Z,4.07
2017-07-22T03:39:35.005Z,4.73
2017-07-22T03:42:02.439Z,3.43
2017-07-22T03:44:29.929Z,4.57
2017-07-22T03:46:57.474Z,8.83
2017-07-22T03:49:24.945Z,3.90
2017-07-22T03:51:52.497Z,4.57
2017-07-22T03:54:19.978Z,8.60
2017-07-22T03:56:47.451Z,3.40
2017-07-22T03:59:14.967Z,4.07
2017-07-22T04:01:42.425Z,3.63
2017-07-22T04:04:09.871Z,4.07
2017-07-22T04:06:37.334Z,4.63
2017-07-22T04:09:04.770Z,4.97
2017-07-22T04:11:32.230Z,5.20
2017-07-22T04:13:59.724Z,5.70
2017-07-22T04:16:27.181Z,6.07
2017-07-22T04:18:54.623Z,5.77
2017-07-22T04:21:22.091Z,6.70
2017-07-22T04:23:51.090Z,5.93
2017-07-22T04:26:18.555Z,6.50
2017-07-22T04:28:46.030Z,11.60
2017-07-22T04:31:13.567Z,18.03
2017-07-22T04:33:41.116Z,9.67
2017-07-22T04:36:08.591Z,7.73
2017-07-22T04:38:36.063Z,12.87
2017-07-22T04:41:03.513Z,6.60
2017-07-22T04:43:30.990Z,5.77
2017-07-22T04:45:58.489Z,11.13
2017-07-22T04:48:25.975Z,7.40
2017-07-22T04:50:53.516Z,9.90
2017-07-22T04:53:21.058Z,5.30
2017-07-22T04:55:48.502Z,8.43
2017-07-22T04:58:15.969Z,12.23
2017-07-22T05:00:43.402Z,6.40
2017-07-22T05:03:10.900Z,6.80
2017-07-22T05:05:38.407Z,16.73
2017-07-22T05:08:05.871Z,7.17
2017-07-22T05:10:33.307Z,4.90
2017-07-22T05:13:00.775Z,9.00
2017-07-22T05:15:28.282Z,4.60
2017-07-22T05:17:55.763Z,8.20
2017-07-22T05:20:23.201Z,8.33
2017-07-22T05:22:50.659Z,3.93
2017-07-22T05:25:19.003Z,4.07
2017-07-22T05:27:46.452Z,4.07
2017-07-22T05:30:14.040Z,3.83
2017-07-22T05:32:41.506Z,5.00
2017-07-22T05:35:09.050Z,12.00
2017-07-22T05:37:40.356Z,8.40
2017-07-22T05:40:07.831Z,4.70
2017-07-22T05:42:35.310Z,10.10
2017-07-22T05:45:02.776Z,5.80
2017-07-22T05:47:30.235Z,4.80
2017-07-22T05:49:57.717Z,2.90
2017-07-22T05:52:25.299Z,3.27
2017-07-22T05:54:52.803Z,8.80
2017-07-22T05:57:20.250Z,8.87
2017-07-22T05:59:47.821Z,3.63
2017-07-22T06:02:15.381Z,7.23
2017-07-22T06:04:42.948Z,2.33
2017-07-22T06:07:10.399Z,3.63
2017-07-22T06:09:37.967Z,6.87
2017-07-22T06:12:05.463Z,8.40
2017-07-22T06:14:32.932Z,3.43
2017-07-22T06:17:00.437Z,2.40
2017-07-22T06:19:27.897Z,7.07
2017-07-22T06:21:55.376Z,2.63
2017-07-22T06:24:22.896Z,2.63
2017-07-22T06:26:50.372Z,3.07
2017-07-22T06:29:17.819Z,1.73
2017-07-22T06:31:45.358Z,2.70
2017-07-22T06:34:12.821Z,3.37
2017-07-22T06:36:40.369Z,4.57
2017-07-22T06:39:07.829Z,2.50
2017-07-22T06:41:35.307Z,7.50
2017-07-22T06:44:02.837Z,10.83
2017-07-22T06:46:30.406Z,2.10
2017-07-22T06:48:57.866Z,2.30
2017-07-22T06:51:25.317Z,2.30
2017-07-22T06:53:52.762Z,2.37
2017-07-22T06:56:20.329Z,2.23
2017-07-22T06:58:47.799Z,2.93
2017-07-22T07:01:15.282Z,3.10
2017-07-22T07:03:42.764Z,3.50
2017-07-22T07:06:10.282Z,12.43
2017-07-22T07:08:37.741Z,2.90
2017-07-22T07:11:05.269Z,2.37
2017-07-22T07:13:32.838Z,4.73
2017-07-22T07:16:00.277Z,3.30
2017-07-22T07:18:27.764Z,4.40
2017-07-22T07:20:55.216Z,3.10
2017-07-22T07:23:22.673Z,2.67
2017-07-22T07:25:50.331Z,7.30
2017-07-22T07:28:17.799Z,3.60
2017-07-22T07:30:45.233Z,1.90
2017-07-22T07:33:12.797Z,3.83
2017-07-22T07:35:40.258Z,2.40
2017-07-22T07:38:07.826Z,6.10
2017-07-22T07:40:35.273Z,2.83
2017-07-22T07:43:02.832Z,5.43
2017-07-22T07:45:30.376Z,10.53
2017-07-22T07:47:57.964Z,2.37
2017-07-22T07:50:25.844Z,3.00
2017-07-22T07:52:53.347Z,2.53
2017-07-22T07:55:20.817Z,2.70
2017-07-22T07:57:48.299Z,5.87
2017-07-22T08:00:15.856Z,3.10
2017-07-22T08:02:43.400Z,5.93
2017-07-22T08:05:10.953Z,2.57
2017-07-22T08:07:38.420Z,3.20
2017-07-22T08:10:05.882Z,2.80
2017-07-22T08:12:33.431Z,6.50
2017-07-22T08:15:00.886Z,3.20
2017-07-22T08:17:28.334Z,2.60
2017-07-22T08:19:55.807Z,6.40
2017-07-22T08:22:23.282Z,2.33
2017-07-22T08:24:50.815Z,2.90
2017-07-22T08:27:18.257Z,12.73
2017-07-22T08:29:45.832Z,6.47
2017-07-22T08:32:13.274Z,3.83
2017-07-22T08:34:40.837Z,2.20
2017-07-22T08:37:08.308Z,2.30
2017-07-22T08:39:35.867Z,2.47
2017-07-22T08:42:03.405Z,6.33
2017-07-22T08:44:30.991Z,2.90
2017-07-22T08:46:58.428Z,3.57
2017-07-22T08:49:25.981Z,3.60
2017-07-22T08:51:53.427Z,4.00
2017-07-22T08:54:20.886Z,2.53
2017-07-22T08:56:48.320Z,3.67
2017-07-22T08:59:15.809Z,3.17
2017-07-22T09:01:43.384Z,8.50
2017-07-22T09:04:10.821Z,3.60
2017-07-22T09:06:38.286Z,5.20
2017-07-22T09:09:05.733Z,2.63
2017-07-22T09:11:33.293Z,2.83
2017-07-22T09:14:00.761Z,2.90
2017-07-22T09:16:28.218Z,7.33
2017-07-22T09:18:55.660Z,3.03
2017-07-22T09:21:23.122Z,2.30
2017-07-22T09:23:50.591Z,3.53
2017-07-22T09:26:18.146Z,3.30
2017-07-22T09:28:45.586Z,4.03
2017-07-22T09:31:13.066Z,19.70
2017-07-22T09:33:40.515Z,4.83
2017-07-22T09:36:07.974Z,2.70
2017-07-22T09:38:35.421Z,4.90
2017-07-22T09:41:02.873Z,4.57
2017-07-22T09:43:30.345Z,5.67
2017-07-22T09:45:57.777Z,5.13
2017-07-22T09:48:25.254Z,2.60
2017-07-22T09:50:52.763Z,3.33
2017-07-22T09:53:20.217Z,5.90
2017-07-22T09:55:47.723Z,6.93
2017-07-22T09:58:15.284Z,2.30
2017-07-22T10:00:42.719Z,2.90
2017-07-22T10:03:10.691Z,3.00
2017-07-22T10:05:38.169Z,5.33
2017-07-22T10:08:05.678Z,9.90
2017-07-22T10:10:33.179Z,3.80
2017-07-22T10:13:00.698Z,3.70
2017-07-22T10:15:28.862Z,2.97
2017-07-22T10:17:56.357Z,2.53
2017-07-22T10:20:23.817Z,3.50
2017-07-22T10:22:51.385Z,2.83
2017-07-22T10:25:18.835Z,6.93
2017-07-22T10:27:46.454Z,2.20
2017-07-22T10:30:13.951Z,2.70
2017-07-22T10:32:41.418Z,6.20
2017-07-22T10:35:08.916Z,2.53
2017-07-22T10:37:36.429Z,7.57
2017-07-22T10:40:03.994Z,2.23
2017-07-22T10:42:31.502Z,3.57
2017-07-22T10:44:58.979Z,4.87
2017-07-22T10:47:26.449Z,2.93
2017-07-22T10:49:54.015Z,2.60
2017-07-22T10:52:21.461Z,7.60
2017-07-22T10:54:49.037Z,4.80
2017-07-22T10:57:16.484Z,2.83
2017-07-22T10:59:43.960Z,4.77
2017-07-22T11:02:11.410Z,6.97
2017-07-22T11:04:39.697Z,2.70
2017-07-22T11:07:07.193Z,7.50
2017-07-22T11:09:34.647Z,2.80
2017-07-22T11:12:02.176Z,3.67
2017-07-22T11:14:29.620Z,3.23
2017-07-22T11:16:57.093Z,2.20
2017-07-22T11:19:24.531Z,2.30
2017-07-22T11:21:52.031Z,3.30
2017-07-22T11:24:19.475Z,1.83
2017-07-22T11:26:46.982Z,4.10
2017-07-22T11:29:14.409Z,2.17
2017-07-22T11:31:41.866Z,2.30
2017-07-22T11:34:09.352Z,1.90
2017-07-22T11:36:36.922Z,7.53
2017-07-22T11:39:04.382Z,3.33
2017-07-22T11:41:31.930Z,2.77
2017-07-22T11:43:59.424Z,3.10
2017-07-22T11:46:26.955Z,2.23
2017-07-22T11:48:54.408Z,2.80
2017-07-22T11:51:22.824Z,2.90
2017-07-22T11:53:50.305Z,3.73
2017-07-22T11:56:17.796Z,4.10
2017-07-22T11:58:45.263Z,3.00
2017-07-22T12:01:12.714Z,5.77
2017-07-22T12:03:40.339Z,5.23
2017-07-22T12:06:07.827Z,2.33
2017-07-22T12:08:35.376Z,2.37
2017-07-22T12:11:02.814Z,2.97
2017-07-22T12:13:30.357Z,2.90
2017-07-22T12:15:57.805Z,3.30
2017-07-22T12:18:25.310Z,3.00
2017-07-22T12:20:52.755Z,2.77
2017-07-22T12:23:20.231Z,5.50
2017-07-22T12:25:47.789Z,2.67
2017-07-22T12:28:15.255Z,4.43
2017-07-22T12:30:42.807Z,2.50
2017-07-22T12:33:10.366Z,2.30
2017-07-22T12:35:37.931Z,2.73
2017-07-22T12:38:05.370Z,2.93
2017-07-22T12:40:32.836Z,3.23
2017-07-22T12:43:00.394Z,2.17
2017-07-22T12:45:27.948Z,2.17
2017-07-22T12:47:55.396Z,2.30
2017-07-22T12:50:22.967Z,2.07
2017-07-22T12:52:50.402Z,2.43
2017-07-22T12:55:17.880Z,2.20
2017-07-22T12:57:45.318Z,3.10
2017-07-22T13:00:12.847Z,2.93
2017-07-22T13:02:40.693Z,2.27
2017-07-22T13:05:08.225Z,2.67
2017-07-22T13:07:35.669Z,4.60
2017-07-22T13:10:03.145Z,2.03
2017-07-22T13:12:30.687Z,2.30
2017-07-22T13:14:58.218Z,2.70
2017-07-22T13:17:25.692Z,7.83
2017-07-22T13:19:53.129Z,2.40
2017-07-22T13:22:20.617Z,1.63
2017-07-22T13:24:48.053Z,2.43
2017-07-22T13:27:15.623Z,2.23
2017-07-22T13:29:43.067Z,6.23
2017-07-22T13:32:10.531Z,6.60
2017-07-22T13:34:37.990Z,2.73
2017-07-22T13:37:05.444Z,2.60
2017-07-22T13:39:32.909Z,2.03
2017-07-22T13:42:00.469Z,7.20
2017-07-22T13:44:27.922Z,2.03
2017-07-22T13:46:55.488Z,3.63
2017-07-22T13:49:23.037Z,2.50
2017-07-22T13:51:50.503Z,2.57
2017-07-22T13:54:17.937Z,3.03
2017-07-22T13:56:45.526Z,2.70
2017-07-22T13:59:13.001Z,2.50
2017-07-22T14:01:40.490Z,3.37
2017-07-22T14:04:07.945Z,2.43
2017-07-22T14:06:35.402Z,2.50
2017-07-22T14:09:02.903Z,2.50
2017-07-22T14:11:30.359Z,3.60
2017-07-22T14:13:57.816Z,2.87
2017-07-22T14:16:25.265Z,4.20
2017-07-22T14:18:52.717Z,2.40
2017-07-22T14:21:20.150Z,2.90
2017-07-22T14:23:47.625Z,3.37
2017-07-22T14:26:15.085Z,3.40
2017-07-22T14:28:42.597Z,4.57
2017-07-22T14:31:10.112Z,2.87
2017-07-22T14:33:37.659Z,2.40
2017-07-22T14:36:05.124Z,2.53
2017-07-22T14:38:32.669Z,2.90
2017-07-22T14:41:00.129Z,3.23
2017-07-22T14:43:27.590Z,2.97
2017-07-22T14:45:55.051Z,4.43
2017-07-22T14:48:22.527Z,3.80
2017-07-22T14:50:49.963Z,2.80
2017-07-22T14:53:17.396Z,3.30
2017-07-22T14:55:44.851Z,2.33
2017-07-22T14:58:12.319Z,3.30
2017-07-22T15:00:39.899Z,2.80
2017-07-22T15:03:07.441Z,2.40
2017-07-22T15:05:34.907Z,2.57
2017-07-22T15:08:02.363Z,2.80
2017-07-22T15:10:29.815Z,2.90
2017-07-22T15:12:57.268Z,3.10
2017-07-22T15:15:24.728Z,3.03
2017-07-22T15:17:52.166Z,2.60
2017-07-22T15:20:19.638Z,3.03
2017-07-22T15:22:47.105Z,2.77
2017-07-22T15:25:14.656Z,11.00
2017-07-22T15:27:42.089Z,3.70
2017-07-22T15:30:09.569Z,3.00
2017-07-22T15:32:37.049Z,4.80
2017-07-22T15:35:05.091Z,2.63
2017-07-22T15:37:32.664Z,5.10
2017-07-22T15:40:01.359Z,3.83
2017-07-22T15:42:28.799Z,3.27
2017-07-22T15:44:56.256Z,3.47
2017-07-22T15:47:23.717Z,4.13
2017-07-22T15:49:51.261Z,4.17
2017-07-22T15:52:18.841Z,8.73
2017-07-22T15:54:46.386Z,3.37
2017-07-22T15:57:13.851Z,2.53
2017-07-22T15:59:41.291Z,3.10
2017-07-22T16:02:08.753Z,12.20
2017-07-22T16:04:36.478Z,3.57
2017-07-22T16:07:03.942Z,2.33
2017-07-22T16:09:31.438Z,2.73
2017-07-22T16:11:58.899Z,2.63
2017-07-22T16:14:26.405Z,7.80
2017-07-22T16:16:53.903Z,3.67
2017-07-22T16:19:21.344Z,4.10
2017-07-22T16:21:48.831Z,2.80
2017-07-22T16:24:16.271Z,3.10
2017-07-22T16:26:43.737Z,3.63
2017-07-22T16:29:11.449Z,5.00
2017-07-22T16:31:38.934Z,5.30
2017-07-22T16:34:06.393Z,2.90
2017-07-22T16:36:33.877Z,3.67
2017-07-22T16:39:01.427Z,3.23
2017-07-22T16:41:29.193Z,4.23
2017-07-22T16:43:56.683Z,2.80
2017-07-22T16:46:24.201Z,2.47
2017-07-22T16:48:51.661Z,3.30
2017-07-22T16:51:19.133Z,2.73
2017-07-22T16:53:47.013Z,3.30
2017-07-22T16:56:14.505Z,3.60
2017-07-22T16:58:41.964Z,4.90
2017-07-22T17:01:09.451Z,10.17
2017-07-22T17:03:36.907Z,3.00
2017-07-22T17:06:05.148Z,2.87
2017-07-22T17:08:32.639Z,3.00
2017-07-22T17:11:00.073Z,5.57
2017-07-22T17:13:27.646Z,3.20
2017-07-22T17:15:55.078Z,3.57
2017-07-22T17:18:22.591Z,3.70
2017-07-22T17:20:50.041Z,3.23
2017-07-22T17:23:17.586Z,5.23
2017-07-22T17:25:45.034Z,4.80
2017-07-22T17:28:12.501Z,2.90
2017-07-22T17:30:40.690Z,3.23
2017-07-22T17:33:08.216Z,2.57
2017-07-22T17:35:35.788Z,4.07
2017-07-22T17:38:03.233Z,2.87
2017-07-22T17:40:30.686Z,3.23
2017-07-22T17:42:59.680Z,3.30
2017-07-22T17:45:27.154Z,2.90
2017-07-22T17:47:54.595Z,4.70
2017-07-22T17:50:22.058Z,2.80
2017-07-22T17:52:49.509Z,4.03
2017-07-22T17:55:16.961Z,3.10
2017-07-22T17:57:44.399Z,3.00
2017-07-22T18:00:11.866Z,3.23
2017-07-22T18:02:39.335Z,2.57
2017-07-22T18:05:06.855Z,3.17
2017-07-22T18:07:34.909Z,2.90
2017-07-22T18:10:02.363Z,8.73
2017-07-22T18:12:29.816Z,3.60
2017-07-22T18:14:57.251Z,4.80
2017-07-22T18:17:24.750Z,3.80
2017-07-22T18:19:52.251Z,3.03
2017-07-22T18:22:19.806Z,2.70
2017-07-22T18:24:47.262Z,3.37
2017-07-22T18:27:14.723Z,4.70
2017-07-22T18:29:42.163Z,3.13
2017-07-22T18:32:09.724Z,5.63
2017-07-22T18:34:37.177Z,3.60
2017-07-22T18:37:04.643Z,2.87
2017-07-22T18:39:32.111Z,5.50
2017-07-22T18:41:59.587Z,3.63
2017-07-22T18:44:27.328Z,3.60
2017-07-22T18:46:54.800Z,7.07
2017-07-22T18:49:22.339Z,2.80
2017-07-22T18:51:49.785Z,4.03
2017-07-22T18:54:17.242Z,4.80
2017-07-22T18:56:45.346Z,3.10
2017-07-22T18:59:12.874Z,4.00
2017-07-22T19:01:40.302Z,7.70
2017-07-22T19:04:07.783Z,5.23
2017-07-22T19:06:35.213Z,5.83
2017-07-22T19:09:02.742Z,18.37
2017-07-22T19:11:30.239Z,11.90
2017-07-22T19:13:57.717Z,21.10
2017-07-22T19:16:25.181Z,26.53
2017-07-22T19:18:52.630Z,5.57
2017-07-22T19:21:20.346Z,8.10
2017-07-22T19:23:47.827Z,11.63
2017-07-22T19:26:15.309Z,11.63
2017-07-22T19:28:42.872Z,3.70
2017-07-22T19:31:10.315Z,4.20
2017-07-22T19:33:38.001Z,4.90
2017-07-22T19:36:05.448Z,3.37
2017-07-22T19:38:33.010Z,4.30
2017-07-22T19:41:00.448Z,6.60
2017-07-22T19:43:28.020Z,3.70
2017-07-22T19:45:55.579Z,4.03
2017-07-22T19:48:23.141Z,7.03
2017-07-22T19:50:50.574Z,4.70
2017-07-22T19:53:18.062Z,4.03
2017-07-22T19:55:45.597Z,4.27
2017-07-22T19:58:13.072Z,6.10
2017-07-22T20:00:40.555Z,5.03
2017-07-22T20:03:08.087Z,4.27
2017-07-22T20:05:35.538Z,9.00
2017-07-22T20:08:02.979Z,4.00
2017-07-22T20:10:30.910Z,3.07
2017-07-22T20:12:58.425Z,4.00
2017-07-22T20:15:25.914Z,5.23
2017-07-22T20:17:53.433Z,3.80
2017-07-22T20:20:20.991Z,5.90
2017-07-22T20:22:48.417Z,3.83
2017-07-22T20:25:15.875Z,17.10
2017-07-22T20:27:43.327Z,11.83
2017-07-22T20:30:10.823Z,7.13
2017-07-22T20:32:38.331Z,7.70
2017-07-22T20:35:05.832Z,4.00
2017-07-22T20:37:33.282Z,5.23
2017-07-22T20:40:00.712Z,10.60
2017-07-22T20:42:28.182Z,4.20
2017-07-22T20:44:55.619Z,5.50
2017-07-22T20:47:23.106Z,4.17
2017-07-22T20:49:50.575Z,4.60
2017-07-22T20:52:18.044Z,10.43
2017-07-22T20:54:45.594Z,8.23
2017-07-22T20:57:13.055Z,4.30
2017-07-22T20:59:40.503Z,4.87
2017-07-22T21:02:08.064Z,5.60
2017-07-22T21:04:35.785Z,9.27
2017-07-22T21:07:03.233Z,4.87
2017-07-22T21:09:30.729Z,6.90
2017-07-22T21:11:58.210Z,5.00
2017-07-22T21:14:25.753Z,4.07
2017-07-22T21:16:53.208Z,5.33
2017-07-22T21:19:20.637Z,5.13
2017-07-22T21:21:48.077Z,4.70
2017-07-22T21:24:15.627Z,4.60
2017-07-22T21:26:43.066Z,5.23
2017-07-22T21:29:10.512Z,6.20
2017-07-22T21:31:37.959Z,9.30
2017-07-22T21:34:05.417Z,5.70
2017-07-22T21:36:32.960Z,6.40
2017-07-22T21:39:00.598Z,7.50
2017-07-22T21:41:28.089Z,6.03
2017-07-22T21:43:55.621Z,14.43
2017-07-22T21:46:23.059Z,8.13
2017-07-22T21:48:50.537Z,5.50
2017-07-22T21:51:18.075Z,11.63
2017-07-22T21:53:45.557Z,6.63
2017-07-22T21:56:12.989Z,15.30
2017-07-22T21:58:40.542Z,20.43
2017-07-22T22:01:08.091Z,5.40
2017-07-22T22:03:35.541Z,9.43
2017-07-22T22:06:02.983Z,6.03
2017-07-22T22:08:30.489Z,7.83
2017-07-22T22:10:57.955Z,7.80
2017-07-22T22:13:25.410Z,8.10
2017-07-22T22:15:52.868Z,7.83
2017-07-22T22:18:20.321Z,10.70
2017-07-22T22:20:47.946Z,7.43
2017-07-22T22:23:15.386Z,9.17
2017-07-22T22:25:42.909Z,7.00
2017-07-22T22:28:10.365Z,13.53
2017-07-22T22:30:37.918Z,7.30
2017-07-22T22:33:05.365Z,6.57
2017-07-22T22:35:32.836Z,5.53
2017-07-22T22:38:00.273Z,6.27
2017-07-22T22:40:27.763Z,6.37
2017-07-22T22:42:55.219Z,10.50
2017-07-22T22:45:22.673Z,5.00
2017-07-22T22:47:50.220Z,10.00
2017-07-22T22:50:17.676Z,4.80
2017-07-22T22:52:45.215Z,6.10
2017-07-22T22:55:12.810Z,4.47
2017-07-22T22:57:40.371Z,9.73
2017-07-22T23:00:07.923Z,5.10
2017-07-22T23:02:35.477Z,10.13
2017-07-22T23:05:03.030Z,7.97
2017-07-22T23:07:30.501Z,4.40
2017-07-22T23:09:58.049Z,6.30
2017-07-22T23:12:25.595Z,4.03
2017-07-22T23:14:53.050Z,5.20
2017-07-22T23:17:20.515Z,4.43
2017-07-22T23:19:47.968Z,3.90
2017-07-22T23:22:15.460Z,7.40
2017-07-22T23:24:42.908Z,4.67
2017-07-22T23:27:10.381Z,4.73
2017-07-22T23:29:37.881Z,5.00
2017-07-22T23:32:05.329Z,4.67
2017-07-22T23:34:32.812Z,4.80
2017-07-22T23:37:00.367Z,3.90
2017-07-22T23:39:27.838Z,4.63
2017-07-22T23:41:55.277Z,4.13
2017-07-22T23:44:22.736Z,4.23
2017-07-22T23:46:50.185Z,5.60
2017-07-22T23:49:17.637Z,4.00
2017-07-22T23:51:45.124Z,4.60
2017-07-22T23:54:12.679Z,5.33
2017-07-22T23:56:40.126Z,8.40
2017-07-22T23:59:07.719Z,4.87
